createdAt,value
2019-06-08T00:00:13.237Z,95375.88
2019-06-08T00:02:42.738Z,95368.20
2019-06-08T00:05:12.562Z,95363.92
2019-06-08T00:07:41.228Z,95364.91
2019-06-08T00:10:10.137Z,95364.70
2019-06-08T00:12:38.675Z,95373.04
2019-06-08T00:15:09.264Z,95373.98
2019-06-08T00:17:39.108Z,95369.31
2019-06-08T00:20:08.274Z,95370.71
2019-06-08T00:22:36.894Z,95369.95
2019-06-08T00:25:06.437Z,95367.02
2019-06-08T00:27:35.209Z,95373.08
2019-06-08T00:30:08.675Z,95370.89
2019-06-08T00:32:37.280Z,95373.02
2019-06-08T00:35:07.323Z,95367.02
2019-06-08T00:37:35.934Z,95361.41
2019-06-08T00:40:06.740Z,95365.63
2019-06-08T00:42:35.389Z,95366.05
2019-06-08T00:45:06.140Z,95362.52
2019-06-08T00:47:47.025Z,95363.33
2019-06-08T00:50:07.734Z,95364.95
2019-06-08T00:52:36.342Z,95359.66
2019-06-08T00:55:06.255Z,95367.73
2019-06-08T00:57:35.167Z,95363.69
2019-06-08T01:00:10.730Z,95365.63
2019-06-08T01:02:38.444Z,95363.36
2019-06-08T01:05:08.128Z,95364.64
2019-06-08T01:07:38.197Z,95362.94
2019-06-08T01:10:07.918Z,95365.06
2019-06-08T01:12:36.837Z,95365.93
2019-06-08T01:15:07.288Z,95365.48
2019-06-08T01:17:35.937Z,95361.99
2019-06-08T01:20:07.500Z,95363.70
2019-06-08T01:22:36.108Z,95360.21
2019-06-08T01:25:05.852Z,95370.08
2019-06-08T01:27:34.396Z,95366.20
2019-06-08T01:30:04.104Z,95366.96
2019-06-08T01:32:32.819Z,95361.24
2019-06-08T01:35:01.468Z,95365.41
2019-06-08T01:37:31.229Z,95373.87
2019-06-08T01:39:59.969Z,95375.84
2019-06-08T01:42:29.743Z,95376.19
2019-06-08T01:44:58.650Z,95374.40
2019-06-08T01:47:28.279Z,95382.44
2019-06-08T01:49:57.161Z,95384.00
2019-06-08T01:52:26.606Z,95386.08
2019-06-08T01:54:55.461Z,95386.04
2019-06-08T01:57:25.196Z,95388.58
2019-06-08T01:59:54.065Z,95386.42
2019-06-08T02:02:23.815Z,95386.00
2019-06-08T02:04:52.668Z,95376.10
2019-06-08T02:07:21.319Z,95385.20
2019-06-08T02:09:49.913Z,95382.66
2019-06-08T02:12:18.459Z,95385.70
2019-06-08T02:14:47.088Z,95388.66
2019-06-08T02:17:15.904Z,95389.57
2019-06-08T02:19:44.395Z,95390.41
2019-06-08T02:22:13.053Z,95390.86
2019-06-08T02:24:41.900Z,95390.03
2019-06-08T02:27:10.663Z,95395.19
2019-06-08T02:29:39.959Z,95400.39
2019-06-08T02:32:08.811Z,95401.22
2019-06-08T02:34:38.220Z,95397.02
2019-06-08T02:37:07.197Z,95393.70
2019-06-08T02:39:37.838Z,95393.30
2019-06-08T02:42:06.539Z,95396.41
2019-06-08T02:44:36.375Z,95391.02
2019-06-08T02:47:05.505Z,95390.37
2019-06-08T02:49:35.393Z,95395.22
2019-06-08T02:52:04.558Z,95388.99
2019-06-08T02:54:35.429Z,95390.22
2019-06-08T02:57:07.219Z,95401.36
2019-06-08T02:59:40.387Z,95398.26
2019-06-08T03:02:08.709Z,95400.72
2019-06-08T03:04:41.082Z,95399.73
2019-06-08T03:07:10.964Z,95394.55
2019-06-08T03:09:41.037Z,95398.76
2019-06-08T03:12:09.873Z,95399.14
2019-06-08T03:14:41.863Z,95399.55
2019-06-08T03:17:10.187Z,95400.80
2019-06-08T03:19:39.965Z,95399.94
2019-06-08T03:22:11.031Z,95399.94
2019-06-08T03:24:39.133Z,95412.00
2019-06-08T03:27:07.606Z,95412.91
2019-06-08T03:29:37.171Z,95411.20
2019-06-08T03:32:06.677Z,95412.00
2019-06-08T03:34:39.726Z,95406.38
2019-06-08T03:37:06.435Z,95405.09
2019-06-08T03:39:36.907Z,95401.68
2019-06-08T03:42:05.810Z,95401.22
2019-06-08T03:44:34.323Z,95410.66
2019-06-08T03:47:02.887Z,95410.17
2019-06-08T03:49:44.874Z,95413.09
2019-06-08T03:52:02.084Z,95412.19
2019-06-08T03:54:30.691Z,95412.19
2019-06-08T03:56:59.272Z,95413.09
2019-06-08T03:59:27.894Z,95418.60
2019-06-08T04:01:56.478Z,95418.26
2019-06-08T04:04:25.215Z,95425.95
2019-06-08T04:06:53.845Z,95422.86
2019-06-08T04:09:25.050Z,95430.97
2019-06-08T04:11:55.198Z,95429.61
2019-06-08T04:14:23.700Z,95434.69
2019-06-08T04:16:52.403Z,95434.58
2019-06-08T04:19:20.946Z,95437.16
2019-06-08T04:21:50.681Z,95448.73
2019-06-08T04:24:19.578Z,95449.95
2019-06-08T04:26:48.187Z,95451.66
2019-06-08T04:29:16.834Z,95447.29
2019-06-08T04:31:46.015Z,95452.80
2019-06-08T04:34:14.972Z,95453.17
2019-06-08T04:36:45.860Z,95453.02
2019-06-08T04:39:14.336Z,95460.22
2019-06-08T04:41:45.005Z,95454.11
2019-06-08T04:44:14.539Z,95459.13
2019-06-08T04:46:45.046Z,95460.75
2019-06-08T04:49:13.521Z,95456.27
2019-06-08T04:51:42.501Z,95454.48
2019-06-08T04:54:14.551Z,95452.20
2019-06-08T04:56:42.803Z,95461.08
2019-06-08T04:59:11.662Z,95468.26
2019-06-08T05:01:40.902Z,95467.27
2019-06-08T05:04:09.854Z,95470.52
2019-06-08T05:06:39.069Z,95469.48
2019-06-08T05:09:08.601Z,95469.03
2019-06-08T05:11:37.084Z,95466.78
2019-06-08T05:14:06.015Z,95467.08
2019-06-08T05:16:34.613Z,95459.73
2019-06-08T05:19:03.258Z,95473.78
2019-06-08T05:21:32.192Z,95482.67
2019-06-08T05:24:00.659Z,95483.39
2019-06-08T05:26:29.207Z,95487.22
2019-06-08T05:28:57.885Z,95486.88
2019-06-08T05:31:27.500Z,95491.09
2019-06-08T05:33:56.031Z,95488.80
2019-06-08T05:36:24.574Z,95485.72
2019-06-08T05:38:53.169Z,95492.52
2019-06-08T05:41:24.096Z,95492.34
2019-06-08T05:43:52.047Z,95502.36
2019-06-08T05:46:20.579Z,95505.61
2019-06-08T05:48:50.337Z,95506.11
2019-06-08T05:51:19.280Z,95506.84
2019-06-08T05:53:48.191Z,95508.73
2019-06-08T05:56:16.769Z,95505.13
2019-06-08T05:58:45.990Z,95514.30
2019-06-08T06:01:14.693Z,95515.33
2019-06-08T06:03:44.564Z,95518.45
2019-06-08T06:06:13.428Z,95525.86
2019-06-08T06:08:42.499Z,95521.63
2019-06-08T06:11:11.408Z,95525.09
2019-06-08T06:13:40.601Z,95522.02
2019-06-08T06:16:09.363Z,95527.52
2019-06-08T06:18:38.166Z,95526.34
2019-06-08T06:21:11.132Z,95523.63
2019-06-08T06:23:37.072Z,95517.36
2019-06-08T06:26:05.897Z,95518.75
2019-06-08T06:28:34.439Z,95520.55
2019-06-08T06:31:03.059Z,95522.72
2019-06-08T06:33:31.613Z,95520.59
2019-06-08T06:36:00.163Z,95531.39
2019-06-08T06:38:28.781Z,95516.28
2019-06-08T06:40:57.348Z,95515.30
2019-06-08T06:43:25.926Z,95519.87
2019-06-08T06:45:54.506Z,95524.53
2019-06-08T06:48:23.746Z,95516.29
2019-06-08T06:50:52.864Z,95520.17
2019-06-08T06:53:21.507Z,95517.05
2019-06-08T06:55:51.026Z,95514.00
2019-06-08T06:58:20.079Z,95514.81
2019-06-08T07:00:49.457Z,95510.45
2019-06-08T07:03:18.326Z,95511.58
2019-06-08T07:05:47.853Z,95506.39
2019-06-08T07:08:16.658Z,95505.96
2019-06-08T07:10:46.324Z,95507.88
2019-06-08T07:13:15.326Z,95511.68
2019-06-08T07:15:44.848Z,95504.98
2019-06-08T07:18:13.818Z,95506.17
2019-06-08T07:20:43.020Z,95504.97
2019-06-08T07:23:11.552Z,95500.87
2019-06-08T07:25:40.106Z,95498.59
2019-06-08T07:28:08.860Z,95505.39
2019-06-08T07:30:37.517Z,95506.40
2019-06-08T07:33:06.073Z,95504.13
2019-06-08T07:35:34.697Z,95504.96
2019-06-08T07:38:03.269Z,95506.89
2019-06-08T07:40:31.906Z,95497.72
2019-06-08T07:43:00.562Z,95504.03
2019-06-08T07:45:29.165Z,95501.27
2019-06-08T07:48:00.489Z,95502.33
2019-06-08T07:50:29.569Z,95503.22
2019-06-08T07:52:58.842Z,95505.42
2019-06-08T07:55:27.773Z,95503.77
2019-06-08T07:57:56.390Z,95493.54
2019-06-08T08:00:25.030Z,95491.58
2019-06-08T08:02:54.350Z,95495.64
2019-06-08T08:05:23.131Z,95497.34
2019-06-08T08:07:52.534Z,95494.70
2019-06-08T08:10:21.478Z,95495.66
2019-06-08T08:12:50.908Z,95500.70
2019-06-08T08:15:20.038Z,95490.65
2019-06-08T08:17:49.075Z,95499.58
2019-06-08T08:20:18.324Z,95496.32
2019-06-08T08:22:49.197Z,95492.00
2019-06-08T08:25:18.247Z,95496.92
2019-06-08T08:27:47.962Z,95497.94
2019-06-08T08:30:20.254Z,95503.16
2019-06-08T08:32:50.916Z,95501.79
2019-06-08T08:35:20.035Z,95505.70
2019-06-08T08:37:53.118Z,95505.03
2019-06-08T08:40:18.988Z,95506.91
2019-06-08T08:42:48.263Z,95506.58
2019-06-08T08:45:18.423Z,95505.28
2019-06-08T08:47:48.493Z,95507.56
2019-06-08T08:50:19.062Z,95502.94
2019-06-08T08:52:47.929Z,95499.91
2019-06-08T08:55:20.242Z,95504.37
2019-06-08T08:57:48.593Z,95502.74
2019-06-08T09:00:20.110Z,95508.70
2019-06-08T09:02:52.969Z,95510.32
2019-06-08T09:05:19.151Z,95510.74
2019-06-08T09:07:48.412Z,95514.94
2019-06-08T09:10:18.364Z,95518.16
2019-06-08T09:12:48.524Z,95517.95
2019-06-08T09:15:19.221Z,95519.36
2019-06-08T09:17:48.380Z,95517.30
2019-06-08T09:20:19.188Z,95516.95
2019-06-08T09:22:56.766Z,95514.55
2019-06-08T09:25:18.451Z,95511.90
2019-06-08T09:27:48.258Z,95512.05
2019-06-08T09:30:18.331Z,95515.16
2019-06-08T09:32:47.856Z,95520.97
2019-06-08T09:35:18.635Z,95523.19
2019-06-08T09:37:48.603Z,95526.72
2019-06-08T09:40:17.625Z,95517.95
2019-06-08T09:42:46.270Z,95529.54
2019-06-08T09:45:18.157Z,95533.39
2019-06-08T09:47:47.837Z,95544.70
2019-06-08T09:50:18.675Z,95534.14
2019-06-08T09:52:47.984Z,95541.42
2019-06-08T09:55:18.090Z,95543.00
2019-06-08T09:57:48.509Z,95543.17
2019-06-08T10:00:21.245Z,95549.19
2019-06-08T10:02:47.974Z,95557.35
2019-06-08T10:05:18.554Z,95551.77
2019-06-08T10:07:48.679Z,95559.11
2019-06-08T10:10:18.210Z,95552.59
2019-06-08T10:12:48.436Z,95557.98
2019-06-08T10:15:18.362Z,95550.23
2019-06-08T10:17:47.616Z,95553.09
2019-06-08T10:20:18.336Z,95550.69
2019-06-08T10:22:50.081Z,95550.52
2019-06-08T10:25:17.809Z,95552.14
2019-06-08T10:27:46.413Z,95555.59
2019-06-08T10:30:15.449Z,95549.87
2019-06-08T10:32:44.068Z,95556.75
2019-06-08T10:35:14.735Z,95556.13
2019-06-08T10:37:43.351Z,95562.16
2019-06-08T10:40:12.792Z,95555.27
2019-06-08T10:42:41.440Z,95548.77
2019-06-08T10:45:14.594Z,95553.09
2019-06-08T10:47:41.096Z,95552.50
2019-06-08T10:50:15.398Z,95548.64
2019-06-08T10:52:43.043Z,95544.02
2019-06-08T10:55:13.150Z,95541.86
2019-06-08T10:57:41.700Z,95542.72
2019-06-08T11:00:20.196Z,95540.59
2019-06-08T11:02:42.453Z,95541.34
2019-06-08T11:05:13.978Z,95543.69
2019-06-08T11:07:41.643Z,95541.87
2019-06-08T11:10:12.551Z,95546.39
2019-06-08T11:12:41.398Z,95543.66
2019-06-08T11:15:11.880Z,95541.16
2019-06-08T11:17:40.629Z,95536.63
2019-06-08T11:20:11.862Z,95537.86
2019-06-08T11:22:40.537Z,95538.22
2019-06-08T11:25:15.465Z,95540.36
2019-06-08T11:27:39.611Z,95541.34
2019-06-08T11:30:14.280Z,95550.66
2019-06-08T11:32:38.981Z,95543.84
2019-06-08T11:35:12.391Z,95543.71
2019-06-08T11:37:40.904Z,95538.95
2019-06-08T11:40:12.384Z,95536.77
2019-06-08T11:42:40.617Z,95539.42
2019-06-08T11:45:12.577Z,95543.00
2019-06-08T11:47:40.595Z,95549.55
2019-06-08T11:50:13.275Z,95549.91
2019-06-08T11:52:41.330Z,95549.53
2019-06-08T11:55:13.165Z,95544.27
2019-06-08T11:57:44.447Z,95535.70
2019-06-08T12:00:25.213Z,95534.48
2019-06-08T12:02:48.509Z,95527.31
2019-06-08T12:05:18.069Z,95526.02
2019-06-08T12:07:48.062Z,95529.46
2019-06-08T12:10:17.809Z,95529.84
2019-06-08T12:12:46.568Z,95523.88
2019-06-08T12:15:20.800Z,95522.56
2019-06-08T12:17:45.442Z,95531.76
2019-06-08T12:20:17.564Z,95526.50
2019-06-08T12:22:44.345Z,95532.81
2019-06-08T12:25:14.195Z,95537.84
2019-06-08T12:27:42.964Z,95534.72
2019-06-08T12:30:21.642Z,95539.12
2019-06-08T12:32:41.902Z,95540.55
2019-06-08T12:35:11.288Z,95547.43
2019-06-08T12:37:41.155Z,95557.28
2019-06-08T12:40:13.175Z,95555.48
2019-06-08T12:42:40.376Z,95551.89
2019-06-08T12:45:09.420Z,95553.65
2019-06-08T12:47:38.342Z,95550.05
2019-06-08T12:50:08.916Z,95552.88
2019-06-08T12:52:43.008Z,95558.22
2019-06-08T12:55:14.227Z,95560.59
2019-06-08T12:57:40.735Z,95561.02
2019-06-08T13:00:11.266Z,95557.27
2019-06-08T13:02:40.158Z,95553.88
2019-06-08T13:05:12.531Z,95558.14
2019-06-08T13:07:39.232Z,95555.28
2019-06-08T13:10:08.889Z,95548.34
2019-06-08T13:12:40.642Z,95556.59
2019-06-08T13:15:10.051Z,95551.53
2019-06-08T13:17:39.259Z,95552.38
2019-06-08T13:20:10.821Z,95548.59
2019-06-08T13:22:39.565Z,95547.88
2019-06-08T13:25:19.199Z,95548.39
2019-06-08T13:27:38.440Z,95553.64
2019-06-08T13:30:07.759Z,95548.59
2019-06-08T13:32:38.275Z,95547.77
2019-06-08T13:35:08.287Z,95553.69
2019-06-08T13:37:39.041Z,95557.58
2019-06-08T13:40:08.303Z,95559.08
2019-06-08T13:42:38.293Z,95550.57
2019-06-08T13:45:08.500Z,95551.35
2019-06-08T13:47:40.960Z,95551.10
2019-06-08T13:50:11.030Z,95549.41
2019-06-08T13:52:39.931Z,95555.34
2019-06-08T13:55:10.254Z,95554.50
2019-06-08T13:57:39.188Z,95561.44
2019-06-08T14:00:09.825Z,95548.33
2019-06-08T14:02:39.839Z,95554.30
2019-06-08T14:05:09.313Z,95558.48
2019-06-08T14:07:38.180Z,95556.70
2019-06-08T14:10:09.588Z,95562.88
2019-06-08T14:12:38.542Z,95569.33
2019-06-08T14:15:08.626Z,95566.95
2019-06-08T14:17:37.856Z,95571.72
2019-06-08T14:20:08.377Z,95577.68
2019-06-08T14:22:38.864Z,95580.30
2019-06-08T14:25:10.559Z,95576.12
2019-06-08T14:27:38.234Z,95577.77
2019-06-08T14:30:08.584Z,95577.83
2019-06-08T14:32:38.091Z,95575.54
2019-06-08T14:35:08.733Z,95575.77
2019-06-08T14:37:38.054Z,95578.14
2019-06-08T14:40:08.422Z,95576.93
2019-06-08T14:42:38.445Z,95581.06
2019-06-08T14:45:11.082Z,95576.28
2019-06-08T14:47:39.955Z,95569.41
2019-06-08T14:50:09.378Z,95575.94
2019-06-08T14:52:38.321Z,95578.98
2019-06-08T14:55:07.957Z,95575.22
2019-06-08T14:57:37.497Z,95574.80
2019-06-08T15:00:09.589Z,95575.03
2019-06-08T15:02:38.325Z,95572.51
2019-06-08T15:05:07.858Z,95573.95
2019-06-08T15:07:38.881Z,95574.52
2019-06-08T15:10:09.836Z,95568.61
2019-06-08T15:12:38.418Z,95569.66
2019-06-08T15:15:10.945Z,95567.78
2019-06-08T15:17:38.271Z,95570.59
2019-06-08T15:20:08.940Z,95566.08
2019-06-08T15:22:38.865Z,95565.95
2019-06-08T15:25:10.955Z,95565.63
2019-06-08T15:27:38.967Z,95567.20
2019-06-08T15:30:08.043Z,95562.21
2019-06-08T15:32:38.690Z,95562.50
2019-06-08T15:35:08.099Z,95556.20
2019-06-08T15:37:38.019Z,95556.68
2019-06-08T15:40:08.240Z,95554.89
2019-06-08T15:42:37.173Z,95562.11
2019-06-08T15:45:09.078Z,95563.07
2019-06-08T15:47:40.571Z,95563.84
2019-06-08T15:50:08.836Z,95562.41
2019-06-08T15:52:38.133Z,95568.70
2019-06-08T15:55:10.929Z,95565.98
2019-06-08T15:57:40.541Z,95568.19
2019-06-08T16:00:10.168Z,95567.03
2019-06-08T16:02:39.428Z,95568.88
2019-06-08T16:05:09.105Z,95575.01
2019-06-08T16:07:37.736Z,95578.25
2019-06-08T16:10:10.209Z,95580.53
2019-06-08T16:12:38.723Z,95573.20
2019-06-08T16:15:08.431Z,95576.34
2019-06-08T16:17:36.977Z,95579.36
2019-06-08T16:20:07.536Z,95582.08
2019-06-08T16:22:36.103Z,95588.39
2019-06-08T16:25:06.353Z,95591.05
2019-06-08T16:27:35.996Z,95595.09
2019-06-08T16:30:09.484Z,95602.10
2019-06-08T16:32:37.320Z,95600.73
2019-06-08T16:35:07.138Z,95611.97
2019-06-08T16:37:35.810Z,95614.88
2019-06-08T16:40:07.380Z,95616.09
2019-06-08T16:42:36.919Z,95618.24
2019-06-08T16:45:09.149Z,95622.51
2019-06-08T16:47:37.821Z,95624.58
2019-06-08T16:50:07.579Z,95633.45
2019-06-08T16:52:36.675Z,95634.48
2019-06-08T16:55:07.670Z,95637.10
2019-06-08T16:57:39.147Z,95635.05
2019-06-08T17:02:39.159Z,95635.69
2019-06-08T17:05:08.380Z,95636.92
2019-06-08T17:07:37.706Z,95636.37
2019-06-08T17:10:08.616Z,95638.40
2019-06-08T17:12:37.239Z,95633.37
2019-06-08T17:15:07.254Z,95636.94
2019-06-08T17:17:36.507Z,95639.08
2019-06-08T17:20:07.963Z,95630.84
2019-06-08T17:22:36.899Z,95637.66
2019-06-08T17:25:09.330Z,95633.06
2019-06-08T17:27:38.977Z,95645.41
2019-06-08T17:30:09.243Z,95640.06
2019-06-08T17:32:38.434Z,95639.03
2019-06-08T17:35:08.413Z,95637.89
2019-06-08T17:37:38.213Z,95658.86
2019-06-08T17:40:07.892Z,95672.28
2019-06-08T17:42:37.631Z,95674.45
2019-06-08T17:45:08.044Z,95686.20
2019-06-08T17:47:36.590Z,95699.41
2019-06-08T17:50:08.871Z,95700.63
2019-06-08T17:52:38.953Z,95718.20
2019-06-08T17:55:07.719Z,95723.20
2019-06-08T17:57:47.400Z,95735.90
2019-06-08T18:00:09.203Z,95736.81
2019-06-08T18:02:41.835Z,95735.04
2019-06-08T18:05:09.488Z,95739.99
2019-06-08T18:07:40.215Z,95745.38
2019-06-08T18:10:09.348Z,95743.80
2019-06-08T18:12:43.019Z,95749.97
2019-06-08T18:15:11.601Z,95755.66
2019-06-08T18:17:42.210Z,95760.59
2019-06-08T18:20:13.175Z,95759.75
2019-06-08T18:22:44.397Z,95772.28
2019-06-08T18:25:12.275Z,95771.98
2019-06-08T18:27:43.735Z,95760.19
2019-06-08T18:30:13.917Z,95755.84
2019-06-08T18:32:44.131Z,95759.67
2019-06-08T18:35:15.098Z,95755.66
2019-06-08T18:37:44.137Z,95765.47
2019-06-08T18:40:17.890Z,95764.77
2019-06-08T18:42:48.851Z,95764.75
2019-06-08T18:45:18.651Z,95779.97
2019-06-08T18:47:48.409Z,95779.44
2019-06-08T18:50:18.132Z,95786.22
2019-06-08T18:52:49.465Z,95801.52
2019-06-08T18:55:18.486Z,95808.23
2019-06-08T18:57:48.997Z,95818.78
2019-06-08T19:00:20.935Z,95828.09
2019-06-08T19:02:54.323Z,95836.94
2019-06-08T19:05:21.243Z,95848.64
2019-06-08T19:07:52.532Z,95861.70
2019-06-08T19:10:33.532Z,95865.29
2019-06-08T19:13:02.921Z,95865.90
2019-06-08T19:15:41.740Z,95880.57
2019-06-08T19:18:08.282Z,95887.28
2019-06-08T19:20:43.143Z,95904.69
2019-06-08T19:23:09.533Z,95908.65
2019-06-08T19:25:42.220Z,95917.89
2019-06-08T19:28:11.595Z,95923.14
2019-06-08T19:30:42.423Z,95923.61
2019-06-08T19:33:10.669Z,95925.83
2019-06-08T19:35:40.758Z,95929.78
2019-06-08T19:38:09.878Z,95934.26
2019-06-08T19:40:39.543Z,95935.19
2019-06-08T19:43:08.823Z,95930.50
2019-06-08T19:45:39.095Z,95930.18
2019-06-08T19:48:08.397Z,95929.34
2019-06-08T19:50:38.648Z,95926.34
2019-06-08T19:53:07.508Z,95929.53
2019-06-08T19:55:37.145Z,95925.43
2019-06-08T19:58:08.105Z,95933.73
2019-06-08T20:00:38.665Z,95943.30
2019-06-08T20:03:07.663Z,95941.62
2019-06-08T20:05:37.778Z,95947.76
2019-06-08T20:08:08.109Z,95969.14
2019-06-08T20:10:37.153Z,95973.55
2019-06-08T20:13:07.720Z,95987.06
2019-06-08T20:15:43.293Z,95989.30
2019-06-08T20:18:06.481Z,95996.30
2019-06-08T20:20:34.978Z,96008.41
2019-06-08T20:23:03.531Z,96013.24
2019-06-08T20:25:32.066Z,96011.62
2019-06-08T20:28:00.605Z,96022.09
2019-06-08T20:30:29.210Z,96018.57
2019-06-08T20:32:57.856Z,96023.48
2019-06-08T20:35:28.099Z,96024.78
2019-06-08T20:37:57.832Z,96029.60
2019-06-08T20:40:27.595Z,96031.88
2019-06-08T20:42:57.770Z,96028.03
2019-06-08T20:45:28.019Z,96029.88
2019-06-08T20:47:58.463Z,96030.98
2019-06-08T20:50:27.277Z,96034.27
2019-06-08T20:52:57.652Z,96034.77
2019-06-08T20:55:28.294Z,96037.50
2019-06-08T20:57:57.620Z,96034.57
2019-06-08T21:00:26.403Z,96033.78
2019-06-08T21:03:01.727Z,96031.28
2019-06-08T21:05:27.574Z,96031.78
2019-06-08T21:07:56.413Z,96028.43
2019-06-08T21:10:28.127Z,96028.60
2019-06-08T21:12:58.710Z,96027.57
2019-06-08T21:15:27.449Z,96032.94
2019-06-08T21:17:56.398Z,96030.39
2019-06-08T21:20:24.896Z,96026.16
2019-06-08T21:22:54.984Z,96028.75
2019-06-08T21:25:23.702Z,96027.17
2019-06-08T21:27:54.058Z,96027.25
2019-06-08T21:30:24.718Z,96029.00
2019-06-08T21:32:55.047Z,96032.15
2019-06-08T21:35:23.792Z,96033.95
2019-06-08T21:37:53.360Z,96025.50
2019-06-08T21:40:22.629Z,96029.11
2019-06-08T21:42:52.269Z,96028.77
2019-06-08T21:45:21.782Z,96039.27
2019-06-08T21:47:51.723Z,96036.34
2019-06-08T21:50:20.666Z,96040.77
2019-06-08T21:52:51.480Z,96044.78
2019-06-08T21:55:19.524Z,96050.47
2019-06-08T21:57:51.968Z,96056.54
2019-06-08T22:00:38.792Z,96057.50
2019-06-08T22:02:51.845Z,96059.30
2019-06-08T22:05:20.680Z,96062.12
2019-06-08T22:07:50.066Z,96062.32
2019-06-08T22:10:19.062Z,96071.09
2019-06-08T22:12:48.541Z,96070.03
2019-06-08T22:15:18.254Z,96068.93
2019-06-08T22:17:47.740Z,96069.13
2019-06-08T22:20:18.661Z,96074.80
2019-06-08T22:22:48.135Z,96072.36
2019-06-08T22:25:17.504Z,96073.35
2019-06-08T22:27:46.802Z,96067.44
2019-06-08T22:30:32.381Z,96074.38
2019-06-08T22:32:47.404Z,96081.34
2019-06-08T22:35:16.666Z,96072.28
2019-06-08T22:37:48.063Z,96078.34
2019-06-08T22:40:17.594Z,96080.12
2019-06-08T22:42:48.074Z,96081.92
2019-06-08T22:45:17.643Z,96085.08
2019-06-08T22:47:47.838Z,96087.70
2019-06-08T22:50:18.567Z,96090.30
2019-06-08T22:52:47.687Z,96092.00
2019-06-08T22:55:18.599Z,96087.66
2019-06-08T22:57:47.900Z,96085.53
2019-06-08T23:00:20.664Z,96084.27
2019-06-08T23:02:48.563Z,96080.53
2019-06-08T23:05:18.602Z,96081.41
2019-06-08T23:07:48.826Z,96078.09
2019-06-08T23:10:17.927Z,96084.19
2019-06-08T23:12:47.183Z,96079.05
2019-06-08T23:15:18.306Z,96075.61
2019-06-08T23:17:48.003Z,96066.20
2019-06-08T23:20:18.605Z,96066.23
2019-06-08T23:22:47.820Z,96065.78
2019-06-08T23:25:18.331Z,96064.03
2019-06-08T23:27:48.410Z,96076.63
2019-06-08T23:30:18.621Z,96076.21
2019-06-08T23:32:48.043Z,96068.94
2019-06-08T23:35:18.188Z,96069.32
2019-06-08T23:37:47.868Z,96080.09
2019-06-08T23:40:17.893Z,96069.28
2019-06-08T23:42:47.649Z,96068.83
2019-06-08T23:45:18.329Z,96067.57
2019-06-08T23:47:48.062Z,96060.81
2019-06-08T23:50:17.991Z,96063.44
2019-06-08T23:52:47.756Z,96064.88
2019-06-08T23:55:18.148Z,96071.42
2019-06-08T23:57:47.268Z,96078.84
